Terminal Aerodrome Forecast
Issued by NWS Knoxville/Tri Cities, TN

Home | Current Version | Previous Version | Text Only | Print | Product List | Glossary On
Versions: 1 2 3 4 5 6 7 8 9 10 11 12 13 14 15 16 17 18 19 20 21 22 23 24 25 26 27 28 29 30 31 32 33 34
000
FTUS44 KMRX 241312 AAA
TAFCHA
TAF AMD
KCHA 241312Z 2413/2512 00000KT 1SM BR BKN005
      TEMPO 2413/2414 1/4SM FG VV002
     FM241400 00000KT 3SM BR SCT005 SCT090
     FM241500 VRB04KT P6SM SCT050 SCT250=

USA.gov is the U.S. government's official web portal to all federal, state and local government web resources and services.